logo
Rechercher aéroport 
image banner adimage banner adimage banner ad
image banner ad

YVCB - Victoria Barracks

Situé à Paddington, Australia

ICAO - , IATA -

Données fournies par Airmate  

Information générale

Coordonnées: S33°53'7" E151°13'26"
Élévation : 213 feet MSL.
Variation magnétique : 13° East
Voir autres Aéroports à (unassigned)

Données opérationnelles

Special qualification required
Heure actuelle UTC:
Heure actuelle locale:
Météo à : YSSY - Sydney / Kingsford Smith ( 8 km )
METAR: YSSY 282030Z 32007KT CAVOK 10/08 Q1029
TAF: TAF YSSY 281715Z 2818/3000 32008KT CAVOK FM290400 04012KT CAVOK FM291100 30008KT CAVOK
Voir NOTAMs / SUP AIP / TFR affectant cet aéroport [VIEW]
Fréquences de communication: [VIEW]

Pistes:

Coordonnées de l'aéroport

Adresse: Paddington Australia

Vue satellite de YVCB